createdAt,value
2023-04-12T00:01:52.032Z,10.78
2023-04-12T00:07:53.050Z,10.87
2023-04-12T00:10:39.226Z,10.89
2023-04-12T00:13:25.234Z,10.91
2023-04-12T00:16:15.581Z,10.90
2023-04-12T00:22:16.012Z,10.99
2023-04-12T00:25:02.186Z,10.95
2023-04-12T00:27:54.713Z,11.08
2023-04-12T00:30:48.676Z,11.12
2023-04-12T00:33:41.731Z,11.11
2023-04-12T00:36:34.434Z,11.02
2023-04-12T00:39:29.884Z,11.15
2023-04-12T00:42:23.508Z,11.23
2023-04-12T00:45:16.578Z,11.32
2023-04-12T00:48:09.582Z,11.36
2023-04-12T00:51:04.730Z,11.25
2023-04-12T00:53:58.612Z,11.30
2023-04-12T00:56:53.091Z,11.39
2023-04-12T00:59:46.844Z,11.46
2023-04-12T01:02:41.302Z,11.55
2023-04-12T01:05:36.990Z,11.55
2023-04-12T01:08:36.943Z,11.55
2023-04-12T01:11:32.640Z,11.54
2023-04-12T01:14:35.084Z,11.51
2023-04-12T01:17:31.633Z,11.50
2023-04-12T01:20:26.375Z,11.49
2023-04-12T01:23:44.880Z,11.45
2023-04-12T01:26:42.500Z,11.52
2023-04-12T01:29:37.107Z,11.55
2023-04-12T01:32:30.002Z,11.56
2023-04-12T01:35:24.319Z,11.54
2023-04-12T01:38:16.678Z,11.48
2023-04-12T01:41:10.169Z,11.51
2023-04-12T01:44:03.224Z,11.51
2023-04-12T01:46:57.337Z,11.60
2023-04-12T01:49:57.542Z,11.62
2023-04-12T01:52:56.169Z,11.62
2023-04-12T01:55:49.770Z,11.59
2023-04-12T01:58:44.396Z,11.64
2023-04-12T02:05:11.323Z,11.67
2023-04-12T02:08:04.720Z,11.65
2023-04-12T02:10:57.737Z,11.63
2023-04-12T02:13:50.950Z,11.68
2023-04-12T02:16:44.584Z,11.72
2023-04-12T02:20:11.817Z,11.74
2023-04-12T02:23:06.653Z,11.64
2023-04-12T02:26:24.963Z,11.57
2023-04-12T02:29:17.544Z,11.64
2023-04-12T02:35:49.812Z,11.57
2023-04-12T02:38:51.868Z,11.63
2023-04-12T02:41:45.932Z,11.55
2023-04-12T02:44:39.779Z,11.58
2023-04-12T02:47:40.177Z,11.55
2023-04-12T02:50:31.168Z,11.53
2023-04-12T02:53:33.525Z,11.60
2023-04-12T02:56:43.778Z,11.54
2023-04-12T02:59:55.796Z,11.50
2023-04-12T03:02:51.811Z,11.28
2023-04-12T03:05:52.750Z,11.09
2023-04-12T03:08:45.270Z,11.10
2023-04-12T03:14:55.380Z,10.98
2023-04-12T03:21:07.579Z,10.77
2023-04-12T03:24:00.795Z,10.73
2023-04-12T03:26:53.410Z,10.67
2023-04-12T03:29:52.125Z,10.66
2023-04-12T03:33:13.863Z,10.62
2023-04-12T03:36:08.212Z,10.66
2023-04-12T03:39:33.216Z,10.67
2023-04-12T03:42:32.974Z,10.47
2023-04-12T03:45:33.355Z,10.12
2023-04-12T03:48:29.950Z,10.12
2023-04-12T03:51:26.723Z,9.99
2023-04-12T03:54:25.081Z,9.88
2023-04-12T03:57:23.618Z,9.87
2023-04-12T04:00:17.955Z,9.77
2023-04-12T04:03:26.683Z,9.55
2023-04-12T04:06:30.543Z,9.49
2023-04-12T04:09:28.975Z,9.52
2023-04-12T04:12:21.422Z,9.42
2023-04-12T04:18:31.027Z,9.37
2023-04-12T04:21:24.497Z,9.36
2023-04-12T04:24:26.440Z,9.52
2023-04-12T04:27:22.559Z,9.56
2023-04-12T04:30:18.676Z,9.43
2023-04-12T04:33:13.412Z,9.27
2023-04-12T04:36:09.159Z,9.38
2023-04-12T04:39:03.316Z,9.40
2023-04-12T04:45:13.685Z,9.48
2023-04-12T04:48:08.690Z,9.51
2023-04-12T04:54:14.005Z,9.65
2023-04-12T04:57:11.436Z,9.62
2023-04-12T05:03:23.321Z,10.06
2023-04-12T05:06:16.125Z,10.06
2023-04-12T05:09:10.029Z,10.09
2023-04-12T05:12:08.492Z,10.19
2023-04-12T05:17:57.901Z,10.54
2023-04-12T05:20:51.931Z,10.54
2023-04-12T05:23:46.590Z,10.69
2023-04-12T05:29:52.567Z,10.89
2023-04-12T05:32:45.679Z,10.82
2023-04-12T05:35:39.466Z,10.95
2023-04-12T05:38:32.885Z,11.13
2023-04-12T05:41:31.217Z,11.36
2023-04-12T05:44:23.652Z,11.32
2023-04-12T05:47:16.886Z,11.28
2023-04-12T05:50:10.085Z,11.24
2023-04-12T05:56:25.456Z,11.40
2023-04-12T06:02:44.259Z,11.53
2023-04-12T06:08:45.437Z,11.48
2023-04-12T06:14:55.770Z,11.62
2023-04-12T06:21:05.459Z,11.86
2023-04-12T06:23:57.402Z,11.96
2023-04-12T06:26:50.577Z,11.82
2023-04-12T06:29:43.625Z,12.03
2023-04-12T06:32:38.399Z,12.25
2023-04-12T06:35:32.088Z,12.12
2023-04-12T06:38:25.548Z,12.34
2023-04-12T06:44:41.533Z,12.52
2023-04-12T06:47:36.970Z,12.62
2023-04-12T06:50:31.090Z,12.67
2023-04-12T06:53:24.052Z,13.09
2023-04-12T06:56:18.551Z,12.87
2023-04-12T06:59:11.741Z,12.67
2023-04-12T07:02:04.905Z,12.32
2023-04-12T07:04:59.842Z,12.10
2023-04-12T07:07:53.976Z,12.15
2023-04-12T07:10:47.217Z,11.66
2023-04-12T07:13:39.431Z,11.49
2023-04-12T07:16:32.601Z,11.46
2023-04-12T07:19:29.754Z,11.33
2023-04-12T07:22:25.510Z,11.22
2023-04-12T07:25:50.614Z,11.37
2023-04-12T07:28:45.481Z,11.41
2023-04-12T07:31:39.167Z,11.53
2023-04-12T07:34:32.021Z,11.51
2023-04-12T07:37:25.097Z,11.39
2023-04-12T07:40:18.058Z,11.29
2023-04-12T07:43:10.829Z,11.51
2023-04-12T07:46:17.747Z,11.28
2023-04-12T07:49:14.546Z,11.24
2023-04-12T07:55:28.543Z,11.15
2023-04-12T08:01:26.443Z,11.10
2023-04-12T08:07:36.578Z,11.33
2023-04-12T08:10:30.304Z,10.92
2023-04-12T08:13:22.715Z,10.91
2023-04-12T08:19:38.516Z,11.15
2023-04-12T08:26:18.914Z,11.47
2023-04-12T08:29:39.969Z,11.84
2023-04-12T08:32:34.810Z,12.05
2023-04-12T08:35:21.542Z,12.10
2023-04-12T08:38:07.980Z,12.27
2023-04-12T08:40:54.141Z,12.25
2023-04-12T08:44:08.993Z,12.26
2023-04-12T08:46:56.605Z,12.31
2023-04-12T08:54:19.639Z,12.10
2023-04-12T08:57:08.124Z,12.23
2023-04-12T09:00:09.856Z,12.16
2023-04-12T09:02:56.221Z,12.21
2023-04-12T09:05:59.647Z,12.21
2023-04-12T09:08:53.338Z,12.19
2023-04-12T09:15:12.423Z,12.60
2023-04-12T09:21:25.242Z,13.20
2023-04-12T09:24:45.271Z,13.78
2023-04-12T09:28:17.504Z,13.82
2023-04-12T09:31:05.292Z,13.84
2023-04-12T09:37:14.407Z,14.38
2023-04-12T09:43:11.414Z,14.67
2023-04-12T09:46:13.086Z,15.29
2023-04-12T09:52:14.019Z,16.21
2023-04-12T09:55:00.276Z,16.62
2023-04-12T10:00:56.566Z,17.20
2023-04-12T10:07:01.916Z,17.37
2023-04-12T10:13:04.797Z,17.19
2023-04-12T10:15:52.423Z,17.21
2023-04-12T10:18:48.001Z,17.36
2023-04-12T10:21:34.191Z,17.66
2023-04-12T10:24:23.815Z,17.53
2023-04-12T10:27:10.140Z,17.34
2023-04-12T10:30:23.228Z,17.19
2023-04-12T10:33:14.361Z,16.69
2023-04-12T10:36:03.797Z,16.57
2023-04-12T10:39:09.243Z,16.28
2023-04-12T10:42:23.557Z,15.81
2023-04-12T10:45:38.162Z,15.15
2023-04-12T10:48:31.744Z,14.65
2023-04-12T10:51:23.122Z,14.72
2023-04-12T10:54:31.845Z,15.03
2023-04-12T10:57:45.161Z,15.29
2023-04-12T11:01:04.705Z,15.60
2023-04-12T11:04:06.827Z,15.94
2023-04-12T11:06:59.071Z,15.88
2023-04-12T11:10:14.845Z,15.84
2023-04-12T11:13:09.989Z,15.97
2023-04-12T11:16:02.747Z,16.00
2023-04-12T11:18:55.603Z,15.85
2023-04-12T11:21:49.327Z,15.77
2023-04-12T11:24:44.513Z,15.71
2023-04-12T11:27:38.094Z,15.89
2023-04-12T11:30:31.653Z,15.68
2023-04-12T11:37:11.051Z,15.86
2023-04-12T11:40:22.173Z,15.85
2023-04-12T11:43:11.041Z,15.97
2023-04-12T11:49:52.750Z,16.29
2023-04-12T11:52:45.237Z,16.19
2023-04-12T11:55:38.308Z,16.09
2023-04-12T12:01:52.725Z,15.35
2023-04-12T12:07:52.512Z,15.87
2023-04-12T12:14:01.911Z,16.95
2023-04-12T12:20:07.683Z,17.44
2023-04-12T12:23:01.425Z,17.62
2023-04-12T12:26:00.188Z,17.59
2023-04-12T12:32:24.197Z,17.14
2023-04-12T12:35:19.207Z,16.81
2023-04-12T12:38:13.582Z,16.68
2023-04-12T12:41:17.725Z,16.45
2023-04-12T12:44:10.938Z,16.30
2023-04-12T12:47:10.086Z,16.14
2023-04-12T12:50:07.699Z,15.77
2023-04-12T12:56:09.956Z,15.09
2023-04-12T12:59:02.433Z,14.85
2023-04-12T13:01:55.332Z,14.74
2023-04-12T13:04:48.344Z,14.68
2023-04-12T13:07:41.618Z,14.75
2023-04-12T13:10:34.064Z,14.88
2023-04-12T13:16:41.787Z,15.08
2023-04-12T13:19:34.357Z,15.14
2023-04-12T13:23:04.518Z,15.30
2023-04-12T13:25:57.096Z,15.51
2023-04-12T13:29:26.521Z,15.79
2023-04-12T13:32:20.717Z,16.38
2023-04-12T13:35:30.679Z,16.73
2023-04-12T13:38:20.785Z,16.84
2023-04-12T13:41:13.516Z,16.79
2023-04-12T13:44:06.349Z,16.61
2023-04-12T13:46:59.181Z,16.41
2023-04-12T13:49:54.177Z,16.25
2023-04-12T13:52:47.373Z,16.00
2023-04-12T13:55:40.422Z,15.86
2023-04-12T13:58:32.803Z,15.69
2023-04-12T14:01:25.403Z,15.56
2023-04-12T14:04:18.528Z,15.45
2023-04-12T14:07:12.544Z,15.35
2023-04-12T14:10:05.623Z,15.26
2023-04-12T14:13:23.227Z,15.24
2023-04-12T14:16:15.992Z,15.40
2023-04-12T14:19:22.391Z,15.45
2023-04-12T14:22:16.802Z,15.48
2023-04-12T14:25:11.613Z,15.50
2023-04-12T14:28:04.421Z,15.53
2023-04-12T14:30:57.856Z,15.52
2023-04-12T14:37:02.735Z,16.43
2023-04-12T14:39:56.574Z,17.32
2023-04-12T14:42:49.491Z,17.69
2023-04-12T14:45:42.387Z,17.96
2023-04-12T14:48:37.241Z,17.79
2023-04-12T14:51:30.410Z,17.79
2023-04-12T14:54:23.678Z,17.93
2023-04-12T14:57:18.102Z,18.13
2023-04-12T15:00:15.285Z,18.43
2023-04-12T15:06:23.713Z,18.71
2023-04-12T15:09:17.415Z,18.46
2023-04-12T15:15:24.214Z,17.76
2023-04-12T15:18:17.133Z,17.29
2023-04-12T15:21:08.328Z,16.91
2023-04-12T15:24:01.433Z,16.63
2023-04-12T15:26:54.346Z,16.34
2023-04-12T15:29:47.518Z,16.19
2023-04-12T15:32:42.482Z,16.12
2023-04-12T15:35:35.553Z,16.01
2023-04-12T15:38:28.997Z,15.93
2023-04-12T15:41:21.607Z,15.87
2023-04-12T15:44:14.447Z,15.78
2023-04-12T15:47:10.936Z,15.48
2023-04-12T15:50:06.234Z,15.16
2023-04-12T15:53:25.091Z,14.90
2023-04-12T15:56:19.937Z,14.89
2023-04-12T16:02:28.725Z,15.28
2023-04-12T16:05:24.361Z,15.25
2023-04-12T16:11:38.208Z,15.26
2023-04-12T16:17:56.380Z,15.45
2023-04-12T16:24:15.972Z,15.10
2023-04-12T16:30:19.722Z,14.84
2023-04-12T16:33:12.137Z,14.83
2023-04-12T16:36:04.512Z,14.98
2023-04-12T16:39:14.737Z,15.02
2023-04-12T16:42:07.390Z,14.46
2023-04-12T16:48:23.034Z,12.81
2023-04-12T16:54:20.198Z,12.52
2023-04-12T17:00:29.113Z,11.95
2023-04-12T17:03:24.101Z,11.71
2023-04-12T17:09:29.641Z,11.60
2023-04-12T17:12:22.195Z,11.87
2023-04-12T17:15:17.186Z,11.77
2023-04-12T17:21:24.152Z,11.30
2023-04-12T17:27:34.861Z,10.95
2023-04-12T17:30:27.811Z,10.70
2023-04-12T17:33:20.562Z,10.68
2023-04-12T17:36:13.881Z,10.87
2023-04-12T17:42:20.511Z,10.93
2023-04-12T17:45:14.490Z,10.83
2023-04-12T17:48:10.707Z,10.86
2023-04-12T17:51:04.064Z,10.90
2023-04-12T17:53:58.141Z,10.80
2023-04-12T17:56:51.181Z,10.81
2023-04-12T17:59:44.531Z,10.81
2023-04-12T18:02:37.417Z,10.72
2023-04-12T18:05:30.321Z,10.71
2023-04-12T18:08:38.646Z,10.68
2023-04-12T18:11:30.132Z,10.67
2023-04-12T18:17:44.746Z,10.40
2023-04-12T18:20:36.946Z,10.21
2023-04-12T18:26:41.638Z,9.81
2023-04-12T18:29:34.440Z,9.69
2023-04-12T18:32:27.770Z,9.62
2023-04-12T18:35:22.031Z,9.59
2023-04-12T18:38:14.449Z,9.59
2023-04-12T18:41:07.098Z,9.54
2023-04-12T18:43:59.499Z,9.44
2023-04-12T18:46:52.640Z,9.30
2023-04-12T18:53:03.186Z,8.93
2023-04-12T18:59:09.063Z,8.59
2023-04-12T19:02:03.321Z,8.54
2023-04-12T19:04:56.495Z,8.42
2023-04-12T19:07:49.155Z,8.30
2023-04-12T19:11:08.221Z,8.16
2023-04-12T19:14:02.056Z,7.99
2023-04-12T19:16:54.290Z,8.00
2023-04-12T19:19:47.517Z,7.99
2023-04-12T19:22:40.242Z,8.00
2023-04-12T19:25:33.033Z,8.03
2023-04-12T19:28:27.449Z,8.00
2023-04-12T19:31:20.278Z,8.07
2023-04-12T19:37:33.575Z,8.23
2023-04-12T19:40:27.935Z,8.25
2023-04-12T19:43:20.921Z,8.24
2023-04-12T19:46:14.508Z,8.29
2023-04-12T19:49:08.368Z,8.38
2023-04-12T19:52:02.208Z,8.38
2023-04-12T19:54:56.976Z,8.41
2023-04-12T19:57:49.183Z,8.42
2023-04-12T20:00:41.272Z,8.52
2023-04-12T20:03:35.647Z,8.54
2023-04-12T20:09:48.527Z,8.63
2023-04-12T20:16:04.242Z,8.67
2023-04-12T20:22:24.667Z,8.72
2023-04-12T20:25:20.122Z,8.72
2023-04-12T20:28:11.936Z,8.63
2023-04-12T20:31:30.441Z,8.66
2023-04-12T20:34:25.528Z,8.72
2023-04-12T20:37:46.649Z,8.68
2023-04-12T20:40:39.679Z,8.66
2023-04-12T20:43:34.685Z,8.67
2023-04-12T20:46:27.091Z,8.62
2023-04-12T20:49:19.776Z,8.55
2023-04-12T20:55:22.531Z,8.53
2023-04-12T20:58:16.245Z,8.50
2023-04-12T21:01:14.435Z,8.40
2023-04-12T21:04:19.263Z,8.31
2023-04-12T21:07:12.638Z,8.19
2023-04-12T21:13:52.490Z,8.13
2023-04-12T21:17:14.430Z,8.07
2023-04-12T21:20:13.249Z,8.00
2023-04-12T21:23:07.465Z,7.91
2023-04-12T21:26:02.402Z,7.90
2023-04-12T21:28:56.797Z,7.88
2023-04-12T21:31:49.117Z,7.83
2023-04-12T21:34:47.314Z,7.85
2023-04-12T21:37:40.465Z,7.82
2023-04-12T21:40:33.430Z,7.78
2023-04-12T21:43:26.778Z,7.79
2023-04-12T21:46:20.659Z,7.77
2023-04-12T21:49:13.751Z,7.76
2023-04-12T21:52:06.622Z,7.79
2023-04-12T21:54:59.987Z,7.76
2023-04-12T22:01:03.782Z,7.82
2023-04-12T22:03:57.860Z,7.85
2023-04-12T22:10:03.022Z,7.79
2023-04-12T22:12:55.313Z,7.87
2023-04-12T22:15:48.352Z,7.88
2023-04-12T22:18:42.424Z,7.92
2023-04-12T22:21:37.162Z,7.89
2023-04-12T22:24:29.643Z,7.84
2023-04-12T22:27:22.081Z,7.85
2023-04-12T22:30:15.702Z,7.91
2023-04-12T22:33:09.048Z,7.91
2023-04-12T22:36:02.086Z,7.90
2023-04-12T22:38:55.845Z,7.88
2023-04-12T22:41:49.652Z,7.83
2023-04-12T22:44:42.456Z,7.81
2023-04-12T22:47:35.601Z,7.78
2023-04-12T22:50:28.845Z,7.76
2023-04-12T22:53:22.228Z,7.71
2023-04-12T22:56:16.677Z,7.71
2023-04-12T22:59:10.440Z,7.66
2023-04-12T23:02:03.554Z,7.67
2023-04-12T23:04:56.503Z,7.66
2023-04-12T23:08:26.594Z,7.62
2023-04-12T23:11:21.601Z,7.59
2023-04-12T23:17:29.186Z,7.58
2023-04-12T23:20:21.544Z,7.51
2023-04-12T23:23:10.605Z,7.51
2023-04-12T23:26:03.441Z,7.48
2023-04-12T23:29:01.418Z,7.52
2023-04-12T23:31:54.310Z,7.48
2023-04-12T23:34:47.375Z,7.46
2023-04-12T23:37:33.295Z,7.44
2023-04-12T23:40:19.207Z,7.45
2023-04-12T23:43:05.094Z,7.36
2023-04-12T23:45:52.510Z,7.42
2023-04-12T23:48:38.668Z,7.47
2023-04-12T23:51:24.901Z,7.41
2023-04-12T23:54:11.151Z,7.47
2023-04-12T23:56:57.235Z,7.56
2023-04-12T23:59:43.532Z,7.57
